Airfield :
LOGIN :

Register | Disclaimer

   EN    FR    IT 

 










Legend :    VFR   Marginal VFR   IFR   Intensive IFR   Very Intensive IFR
Visi :
Ceiling :
>= 8 km
>= 3000ft
5 to 8 km
1000 to 3000 ft
1500m to 5 km
500 to 1000 ft
800 to 1500m
200 to 500 ft
< 800m
< 200 ft
Symbols :   Thunderstorms  Fog  Heavy snow  Heavy precipitations  Wind > 20 kt
SIGMETs :     Misc.  Thunderstorms  Icing  Turbulence  Mountain Waves  Volcanic Ashes







- Airport Elevation : 102 ft
- IATA code : CNG
- Download approach charts


LFBG - Cognac

CURRENT METAR :
  • 231400Z AUTO 19010KT 9999 FEW032/// BKN058/// OVC120/// ///TCU 11/03 Q1009 TEMPO 24015G25KT 4000 SHRA

EXPIRED METARs :
  • 231330Z AUTO 18011KT 9999 SCT029 BKN056 BKN120 10/04 Q1009 TEMPO 24015G25KT 4000 SHRA SCT015TCU BKN040
  • 231300Z AUTO 19012KT 9999 FEW029 SCT042 11/05 Q1009 TEMPO 24015G25KT 4000 SHRA SCT015TCU BKN040
  • 231230Z AUTO 19005KT 9999 FEW026 SCT032 BKN044 10/06 Q1009 TEMPO 24015G25KT 4000 SHRA SCT015TCU BKN040
  • 231200Z AUTO 18004KT 150V210 9999 FEW018 SCT023 BKN034 08/04 Q1009 TEMPO 24015G25KT 4000 SHRA SCT015TCU BKN040
  • 231130Z AUTO 15009KT 9999 FEW021 BKN034 BKN041 09/05 Q1009 TEMPO 24015G25KT 4000 SHRA SCT015TCU BKN040

TAF TAF LFBG
Valid from the 23 at 09:00 until the 24 at 09:00 UTC


230800Z 2309/2409 15006KT 9999 SCT008 BKN040
BECMG 2310/2312 23008KT BKN015 BKN040
TEMPO 2314/2318 23015G25KT 4000 SHRA BKN015 BKN040
No reported NOTAMs for that airfield.



MET'MAP, your aeronautical weather chart ! - Copyright ORBIFLY December 2007 - Disclaimer

ORBIFLY MET'MAP TEAM :

Programming & Development : Alexandra Zaïnal
Concept & Development : Baudouin d'Aumeries
Co-Development & Prog : Marc-Olivier Méhu
Technical & hardware support : Manuel Goepfert

Contact : metmap@orbifly.com




SOURCES & CREDITS :

   NOAA